Terminal Aerodrome Forecast
Issued by NWS

Home | Current Version | Previous Version | Graphics & Text | Print | Product List | Glossary On
Versions: 1 2 3 4 5 6 7 8 9 10 11 12 13 14 15 16 17 18 19 20 21 22 23 24 25 26 27 28 29 30 31 32 33 34 35 36 37 38 39
139
FTUS43 KABR 231911 AAA
TAFATY
TAF AMD
KATY 231911Z 2319/2418 12016G25KT P6SM OVC005
     FM232200 11017G24KT P6SM BKN015
     FM240000 11017G24KT P6SM BKN010
     FM240800 12016KT P6SM SCT010
     FM241400 15015KT P6SM OVC025=

USA.gov is the U.S. government's official web portal to all federal, state and local government web resources and services.